createdAt,value
2019-05-20T00:04:48.622Z,8.43
2019-05-20T00:09:56.083Z,8.77
2019-05-20T00:15:03.477Z,10.23
2019-05-20T00:20:11.844Z,11.23
2019-05-20T00:25:19.218Z,9.60
2019-05-20T00:30:26.735Z,10.93
2019-05-20T00:35:34.053Z,9.57
2019-05-20T00:40:41.527Z,9.77
2019-05-20T00:45:49.916Z,9.50
2019-05-20T00:50:57.495Z,8.23
2019-05-20T00:56:05.334Z,11.40
2019-05-20T01:01:12.734Z,9.30
2019-05-20T01:06:20.139Z,8.57
2019-05-20T01:11:27.549Z,10.33
2019-05-20T01:16:34.949Z,10.03
2019-05-20T01:21:42.366Z,11.63
2019-05-20T01:26:49.779Z,10.63
2019-05-20T01:31:57.225Z,11.33
2019-05-20T01:37:04.598Z,10.87
2019-05-20T01:42:11.962Z,8.80
2019-05-20T01:47:19.335Z,9.63
2019-05-20T01:52:26.802Z,10.80
2019-05-20T01:57:34.089Z,10.67
2019-05-20T02:02:41.521Z,11.33
2019-05-20T02:07:48.927Z,11.53
2019-05-20T02:12:56.352Z,11.87
2019-05-20T02:18:03.790Z,11.83
2019-05-20T02:23:15.620Z,15.23
2019-05-20T02:28:23.078Z,10.53
2019-05-20T02:33:47.837Z,13.17
2019-05-20T02:38:39.519Z,12.57
2019-05-20T02:43:46.931Z,11.13
2019-05-20T02:48:54.426Z,11.60
2019-05-20T02:54:03.196Z,14.07
2019-05-20T02:59:10.532Z,13.50
2019-05-20T03:04:17.974Z,14.73
2019-05-20T03:09:25.369Z,13.33
2019-05-20T03:14:32.803Z,13.40
2019-05-20T03:19:40.201Z,13.40
2019-05-20T03:24:47.506Z,12.27
2019-05-20T03:29:54.936Z,14.13
2019-05-20T03:35:02.457Z,13.03
2019-05-20T03:40:10.957Z,14.37
2019-05-20T03:45:18.388Z,15.70
2019-05-20T03:50:25.754Z,16.03
2019-05-20T03:55:33.116Z,17.83
2019-05-20T04:00:46.666Z,14.60
2019-05-20T04:05:53.989Z,13.07
2019-05-20T04:11:01.301Z,12.93
2019-05-20T04:16:08.787Z,13.40
2019-05-20T04:21:16.223Z,18.97
2019-05-20T04:26:23.607Z,15.60
2019-05-20T04:31:31.029Z,15.93
2019-05-20T04:36:38.465Z,12.33
2019-05-20T04:41:45.896Z,13.50
2019-05-20T04:46:53.541Z,15.43
2019-05-20T04:52:00.909Z,12.33
2019-05-20T04:57:09.181Z,14.20
2019-05-20T05:02:16.602Z,13.13
2019-05-20T05:07:25.131Z,14.00
2019-05-20T05:12:32.546Z,12.27
2019-05-20T05:17:40.194Z,12.50
2019-05-20T05:22:47.587Z,15.27
2019-05-20T05:27:55.073Z,15.10
2019-05-20T05:33:02.463Z,15.17
2019-05-20T05:38:10.272Z,12.37
2019-05-20T05:43:17.548Z,13.77
2019-05-20T05:48:25.033Z,14.43
2019-05-20T05:53:32.493Z,13.90
2019-05-20T05:58:39.888Z,14.10
2019-05-20T06:03:47.311Z,14.83
2019-05-20T06:08:54.630Z,10.63
2019-05-20T06:14:02.018Z,10.40
2019-05-20T06:19:09.349Z,13.53
2019-05-20T06:24:16.751Z,11.13
2019-05-20T06:29:24.159Z,12.47
2019-05-20T06:34:32.343Z,12.83
2019-05-20T06:39:39.784Z,19.63
2019-05-20T06:44:53.163Z,12.37
2019-05-20T06:49:56.197Z,14.73
2019-05-20T06:55:03.789Z,16.00
2019-05-20T07:00:12.417Z,18.30
2019-05-20T07:05:19.890Z,13.17
2019-05-20T07:10:27.239Z,15.87
2019-05-20T07:15:34.656Z,11.40
2019-05-20T07:20:42.077Z,11.97
2019-05-20T07:25:49.482Z,13.00
2019-05-20T07:30:56.839Z,14.03
2019-05-20T07:36:04.242Z,13.97
2019-05-20T07:41:11.560Z,13.70
2019-05-20T07:46:20.322Z,12.27
2019-05-20T07:51:28.736Z,14.27
2019-05-20T07:56:40.718Z,12.73
2019-05-20T08:01:48.048Z,14.07
2019-05-20T08:06:55.582Z,13.10
2019-05-20T08:12:03.050Z,12.70
2019-05-20T08:17:10.652Z,14.20
2019-05-20T08:22:18.079Z,13.63
2019-05-20T08:27:25.490Z,14.47
2019-05-20T08:32:32.959Z,20.90
2019-05-20T08:37:45.271Z,13.17
2019-05-20T08:42:49.424Z,13.60
2019-05-20T08:47:56.744Z,12.13
2019-05-20T08:53:04.193Z,14.13
2019-05-20T08:58:11.632Z,11.73
2019-05-20T09:03:19.015Z,12.60
2019-05-20T09:08:26.425Z,13.23
2019-05-20T09:13:33.791Z,11.60
2019-05-20T09:18:41.209Z,11.17
2019-05-20T09:23:48.585Z,12.23
2019-05-20T09:28:57.108Z,12.53
2019-05-20T09:34:04.703Z,12.77
2019-05-20T09:39:12.206Z,12.33
2019-05-20T09:44:19.628Z,12.90
2019-05-20T09:49:27.087Z,12.63
2019-05-20T09:54:34.498Z,15.17
2019-05-20T09:59:43.638Z,12.80
2019-05-20T10:04:50.964Z,16.43
2019-05-20T10:09:58.279Z,18.47
2019-05-20T10:15:05.996Z,15.67
2019-05-20T10:20:15.236Z,19.17
2019-05-20T10:25:23.184Z,21.93
2019-05-20T10:30:30.625Z,18.27
2019-05-20T10:35:37.978Z,21.53
2019-05-20T10:40:45.671Z,17.97
2019-05-20T10:45:53.997Z,18.70
2019-05-20T10:51:01.412Z,18.87
2019-05-20T10:56:08.859Z,18.97
2019-05-20T11:01:16.219Z,22.90
2019-05-20T11:06:23.543Z,22.97
2019-05-20T11:11:30.979Z,22.00
2019-05-20T11:16:38.206Z,22.03
2019-05-20T11:21:45.538Z,20.70
2019-05-20T11:26:52.977Z,22.77
2019-05-20T11:32:00.381Z,23.93
2019-05-20T11:37:07.754Z,28.53
2019-05-20T11:42:15.148Z,33.60
2019-05-20T11:47:22.513Z,37.07
2019-05-20T11:52:29.897Z,36.27
2019-05-20T11:57:37.312Z,30.53
2019-05-20T12:02:45.734Z,34.73
2019-05-20T12:07:53.055Z,33.03
2019-05-20T12:13:00.433Z,31.10
2019-05-20T12:18:07.642Z,30.60
2019-05-20T12:23:15.013Z,32.80
2019-05-20T12:28:22.346Z,30.50
2019-05-20T12:33:29.701Z,20.43
2019-05-20T12:38:37.355Z,22.17
2019-05-20T12:43:45.353Z,20.57
2019-05-20T12:48:53.360Z,21.90
2019-05-20T12:54:01.008Z,21.00
2019-05-20T12:59:09.024Z,23.27
2019-05-20T13:04:16.543Z,21.23
2019-05-20T13:09:23.906Z,21.83
2019-05-20T13:14:35.639Z,20.30
2019-05-20T13:19:43.286Z,18.47
2019-05-20T13:24:50.545Z,18.73
2019-05-20T13:29:58.105Z,17.63
2019-05-20T13:35:05.675Z,18.27
2019-05-20T13:40:13.991Z,18.37
2019-05-20T13:45:21.883Z,21.27
2019-05-20T13:50:29.247Z,21.43
2019-05-20T13:55:36.564Z,21.00
2019-05-20T14:00:43.910Z,21.97
2019-05-20T14:05:52.739Z,26.07
2019-05-20T14:11:04.224Z,25.07
2019-05-20T14:16:09.387Z,20.53
2019-05-20T14:21:16.894Z,26.83
2019-05-20T14:26:24.733Z,33.40
2019-05-20T14:31:32.404Z,26.97
2019-05-20T14:36:40.529Z,11.87
2019-05-20T14:41:48.441Z,9.37
2019-05-20T14:46:55.868Z,17.23
2019-05-20T14:52:03.579Z,7.70
2019-05-20T14:57:11.306Z,5.80
2019-05-20T15:02:18.835Z,5.70
2019-05-20T15:07:30.695Z,5.40
2019-05-20T15:12:35.459Z,5.50
2019-05-20T15:17:42.933Z,6.33
2019-05-20T15:22:50.253Z,4.27
2019-05-20T15:27:57.916Z,3.93
2019-05-20T15:33:05.394Z,7.87
2019-05-20T15:38:12.808Z,16.23
2019-05-20T15:43:20.127Z,6.40
2019-05-20T15:48:27.475Z,4.17
2019-05-20T15:53:34.816Z,3.37
2019-05-20T15:58:42.288Z,4.07
2019-05-20T16:03:51.489Z,5.23
2019-05-20T16:08:58.996Z,5.63
2019-05-20T16:14:06.434Z,11.40
2019-05-20T16:19:13.850Z,5.03
2019-05-20T16:24:21.536Z,4.67
2019-05-20T16:29:29.260Z,5.43
2019-05-20T16:34:36.827Z,6.80
2019-05-20T16:39:44.440Z,6.57
2019-05-20T16:44:51.955Z,5.23
2019-05-20T16:49:59.610Z,5.47
2019-05-20T16:55:07.193Z,5.10
2019-05-20T17:00:30.961Z,5.00
2019-05-20T17:05:26.446Z,6.10
2019-05-20T17:10:33.963Z,5.80
2019-05-20T17:15:41.809Z,4.47
2019-05-20T17:20:49.102Z,5.60
2019-05-20T17:25:56.604Z,5.30
2019-05-20T17:31:04.053Z,6.40
2019-05-20T17:36:11.593Z,7.00
2019-05-20T17:41:19.006Z,4.23
2019-05-20T17:46:26.704Z,5.47
2019-05-20T17:51:34.126Z,6.03
2019-05-20T17:56:41.406Z,5.53
2019-05-20T18:01:48.948Z,4.87
2019-05-20T18:06:56.654Z,6.27
2019-05-20T18:12:04.091Z,5.03
2019-05-20T18:17:11.635Z,8.80
2019-05-20T18:22:19.412Z,7.03
2019-05-20T18:27:26.955Z,6.40
2019-05-20T18:32:34.634Z,5.43
2019-05-20T18:37:42.301Z,11.90
2019-05-20T18:42:49.993Z,15.47
2019-05-20T18:47:57.778Z,10.10
2019-05-20T18:53:05.443Z,13.50
2019-05-20T18:58:13.048Z,14.77
2019-05-20T19:03:20.946Z,12.47
2019-05-20T19:08:28.674Z,10.40
2019-05-20T19:13:36.111Z,15.97
2019-05-20T19:18:43.522Z,66.30
2019-05-20T19:23:51.092Z,17.50
2019-05-20T19:28:58.516Z,31.93
2019-05-20T19:34:06.003Z,51.87
2019-05-20T19:39:13.591Z,35.90
2019-05-20T19:44:21.184Z,48.90
2019-05-20T19:49:30.826Z,57.20
2019-05-20T19:54:38.299Z,21.00
2019-05-20T19:59:45.646Z,17.40
2019-05-20T20:04:53.070Z,12.13
2019-05-20T20:10:00.478Z,11.37
2019-05-20T20:15:08.640Z,12.17
2019-05-20T20:20:16.928Z,12.13
2019-05-20T20:25:25.364Z,14.33
2019-05-20T20:30:32.638Z,26.00
2019-05-20T20:35:39.969Z,57.37
2019-05-20T20:40:47.374Z,9.00
2019-05-20T20:45:54.802Z,16.17
2019-05-20T20:51:02.233Z,18.47
2019-05-20T20:56:24.138Z,24.23
2019-05-20T21:01:18.837Z,31.13
2019-05-20T21:06:26.228Z,22.03
2019-05-20T21:11:33.635Z,17.63
2019-05-20T21:16:41.054Z,16.47
2019-05-20T21:21:48.457Z,16.77
2019-05-20T21:26:55.867Z,16.67
2019-05-20T21:32:03.345Z,16.00
2019-05-20T21:37:10.809Z,15.83
2019-05-20T21:42:18.157Z,12.43
2019-05-20T21:47:25.549Z,53.87
2019-05-20T21:52:32.969Z,21.60
2019-05-20T21:57:40.291Z,9.00
2019-05-20T22:02:47.582Z,11.07
2019-05-20T22:07:55.057Z,16.03
2019-05-20T22:13:02.511Z,10.03
2019-05-20T22:18:10.097Z,11.30
2019-05-20T22:23:34.919Z,14.53
2019-05-20T22:28:42.479Z,21.77
2019-05-20T22:33:49.919Z,28.87
2019-05-20T22:38:57.362Z,32.83
2019-05-20T22:44:04.863Z,9.10
2019-05-20T22:49:12.326Z,5.63
2019-05-20T22:54:19.764Z,5.70
2019-05-20T22:59:27.233Z,7.57
2019-05-20T23:04:34.751Z,7.50
2019-05-20T23:09:42.165Z,10.83
2019-05-20T23:14:49.578Z,19.10
2019-05-20T23:19:57.033Z,11.13
2019-05-20T23:25:05.678Z,11.93
2019-05-20T23:30:14.019Z,13.87
2019-05-20T23:35:21.402Z,7.80
2019-05-20T23:40:28.817Z,8.17
2019-05-20T23:45:36.319Z,8.63
2019-05-20T23:50:43.741Z,11.67
2019-05-20T23:55:51.369Z,8.17
